• Join FlightAware (Why Join?)
  • Login
  • US Flag 
 
09:02AM EST


 

Airport Tracker/Info


-or-


 

Live Flight TrackerFlight Track Log ✈ DAL268 ✈ 30-Aug-2013 ✈ KSFO - KJFK

Flight Track Log - Related Links

Times and Time Zones

All times are in EDT time to prevent confusion due to time zone crossing. See the DAL268 flight status page for this flight to view local times or setup timezone preferences in your user account.

Time Position Orientation Groundspeed Altitude Reporting Facility
EDT Latitude Longitude Course Direction KTS MPH feet Rate Location/Type
02:41PM 37.6170 -122.3740 38° Northeast 145 167  Level FlightAware
02:41PM 37.6242 -122.3690 29° Northeast 175 201 1,500 Level FlightAware ADS-B
02:41PM 37.6355 -122.3610 29° Northeast 172 198 700 2,280 Climbing FlightAware ADS-B
02:41PM 37.6385 -122.3590 28° Northeast 178 205 800 2,160 Climbing FlightAware ADS-B
02:41PM 37.6436 -122.3550 32° Northeast 186 214 1,100 2,280 Climbing FlightAware ADS-B
02:41PM 37.6472 -122.3500 48° Northeast 185 213 1,300 1,860 Climbing FlightAware ADS-B
02:42PM 37.6567 -122.3370 47° Northeast 199 229 1,800 1,680 Climbing FlightAware ADS-B
02:42PM 37.6667 -122.3220 50° Northeast 223 257 2,200 1,680 Climbing FlightAware ADS-B
02:42PM 37.6776 -122.3060 49° Northeast 236 272 2,700 1,860 Climbing FlightAware ADS-B
02:42PM 37.6897 -122.2880 50° Northeast 250 288 3,200 2,160 Climbing FlightAware ADS-B
02:43PM 37.7061 -122.2650 48° Northeast 267 307 4,000 2,580 Climbing FlightAware ADS-B
02:43PM 37.7219 -122.2420 49° Northeast 271 312 4,900 2,700 Climbing FlightAware ADS-B
02:43PM 37.7415 -122.2150 47° Northeast 281 323 5,900 2,820 Climbing FlightAware ADS-B
02:44PM 37.7549 -122.1960 48° Northeast 281 323 6,700 2,820 Climbing FlightAware ADS-B
02:44PM 37.7624 -122.1870 43° Northeast 285 328 7,000 2,160 Climbing FlightAware ADS-B
02:44PM 37.7799 -122.1700 38° Northeast 295 339 7,600 2,340 Climbing FlightAware ADS-B
02:44PM 37.7981 -122.1520 38° Northeast 301 346 8,300 2,580 Climbing FlightAware ADS-B
02:45PM 37.8121 -122.1370 40° Northeast 298 343 8,900 2,640 Climbing FlightAware ADS-B
02:45PM 37.8289 -122.1210 37° Northeast 301 346 9,600 2,100 Climbing FlightAware ADS-B
02:45PM 37.8636 -122.0890 36° Northeast 321 369 10,500 1,260 Climbing FlightAware ADS-B
02:46PM 37.9027 -122.0540 35° Northeast 358 412 10,900 960 Climbing FlightAware ADS-B
02:46PM 37.9473 -122.0130 36° Northeast 384 442 11,500 1,500 Climbing FlightAware ADS-B
02:47PM 37.9931 -121.9710 36° Northeast 396 456 12,500 2,040 Climbing FlightAware ADS-B
02:48PM 38.0780 -121.8930 36° Northeast 405 466 14,500 2,100 Climbing FlightAware
02:48PM 38.1290 -121.8440 37° Northeast 411 473 15,700 1,980 Climbing FlightAware
02:49PM 38.1810 -121.7970 35° Northeast 417 480 16,800 1,800 Climbing FlightAware
02:49PM 38.2360 -121.7450 37° Northeast 425 489 17,800 1,620 Climbing FlightAware
02:50PM 38.2920 -121.6940 36° Northeast 432 497 18,700 1,560 Climbing FlightAware
02:51PM 38.3520 -121.6370 37° Northeast 440 506 19,700 1,500 Climbing FlightAware
02:51PM 38.4050 -121.5880 36° Northeast 448 516 20,500 1,500 Climbing FlightAware
02:52PM 38.4650 -121.5140 44° Northeast 453 521 21,500 1,560 Climbing FlightAware
02:52PM 38.5060 -121.4450 53° Northeast 458 527 22,400 1,500 Climbing FlightAware
02:53PM 38.5450 -121.3790 53° Northeast 463 533 23,100 1,320 Climbing FlightAware
02:54PM 38.5960 -121.2910 53° Northeast 467 537 24,000 1,320 Climbing FlightAware
02:54PM 38.6420 -121.2110 54° Northeast 473 544 24,800 1,200 Climbing FlightAware
02:55PM 38.6800 -121.1460 53° Northeast 478 550 25,400 1,260 Climbing FlightAware
02:55PM 38.7290 -121.0610 54° Northeast 484 557 26,200 1,320 Climbing FlightAware
02:56PM 38.7830 -120.9670 54° Northeast 489 563 27,100 1,260 Climbing FlightAware
02:57PM 38.8280 -120.8890 53° Northeast 492 566 27,800 1,200 Climbing FlightAware
02:57PM 38.8760 -120.8050 54° Northeast 495 570 28,500 1,260 Climbing FlightAware
02:58PM 38.9180 -120.7330 53° Northeast 494 568 29,200 1,140 Climbing FlightAware
02:58PM 38.9670 -120.6490 53° Northeast 499 574 29,800 900 Climbing FlightAware
02:59PM 39.0150 -120.5660 53° Northeast 507 583 30,300 960 Climbing FlightAware
02:59PM 39.0690 -120.4710 54° Northeast 509 586 31,000 1,080 Climbing FlightAware
03:00PM 39.1150 -120.3920 53° Northeast 510 587 31,600 1,020 Climbing FlightAware
03:01PM 39.1650 -120.3040 54° Northeast 513 590 32,200 1,020 Climbing FlightAware
03:01PM 39.2170 -120.2130 54° Northeast 513 590 32,900 1,020 Climbing FlightAware
03:02PM 39.2590 -120.1380 54° Northeast 513 590 33,400 1,080 Climbing FlightAware
03:02PM 39.3090 -120.0500 54° Northeast 512 589 34,100 1,140 Climbing FlightAware
03:03PM 39.3590 -119.9620 54° Northeast 511 588 34,800 1,080 Climbing FlightAware
03:04PM 39.4120 -119.8680 54° Northeast 509 586 35,500 1,020 Climbing FlightAware
03:04PM 39.4540 -119.7930 54° Northeast 507 583 36,000 960 Climbing FlightAware
03:05PM 39.5040 -119.7050 54° Northeast 507 583 36,600 780 Climbing FlightAware
03:05PM 39.5530 -119.6170 54° Northeast 507 583 37,000 300 Climbing FlightAware
03:06PM 39.6020 -119.5290 54° Northeast 510 587 37,000  Level FlightAware
03:06PM 39.6510 -119.4410 54° Northeast 512 589 37,000  Level FlightAware
03:07PM 39.7030 -119.3470 54° Northeast 513 590 37,000  Level FlightAware
03:08PM 39.7490 -119.2660 54° Northeast 513 590 37,000  Level FlightAware
03:08PM 39.7960 -119.1800 55° Northeast 514 592 37,000  Level FlightAware
03:09PM 39.8440 -119.0920 55° Northeast 514 592 37,000  Level FlightAware
03:09PM 39.8920 -119.0050 54° Northeast 511 588 37,000  Level FlightAware
03:10PM 39.9440 -118.9100 54° Northeast 514 592 37,000  Level FlightAware
03:11PM 39.9900 -118.8260 54° Northeast 514 592 37,000  Level FlightAware
03:11PM 40.0350 -118.7440 54° Northeast 515 593 37,000  Level FlightAware
03:12PM 40.0850 -118.6520 55° Northeast 515 593 37,000  Level FlightAware
03:12PM 40.1280 -118.5570 59° Northeast 516 594 37,000  Level FlightAware
03:13PM 40.1610 -118.4500 68° East 515 593 37,000  Level FlightAware
03:13PM 40.1860 -118.3600 70° East 515 593 37,000  Level FlightAware
03:14PM 40.2140 -118.2570 70° East 517 595 37,000  Level FlightAware
03:15PM 40.2430 -118.1490 71° East 518 596 37,000  Level FlightAware
03:15PM 40.2730 -118.0390 70° East 517 595 37,000  Level FlightAware
03:16PM 40.3020 -117.9320 70° East 517 595 37,000  Level FlightAware
03:16PM 40.3330 -117.8150 71° East 517 595 37,000  Level FlightAware
03:17PM 40.3700 -117.6810 70° East 517 595 37,000  Level FlightAware
03:18PM 40.3940 -117.5930 70° East 517 595 37,000  Level FlightAware
03:19PM 40.4210 -117.4980 70° East 517 595 37,000  Level FlightAware
03:19PM 40.4460 -117.4050 71° East 517 595 37,000  Level FlightAware
03:20PM 40.4710 -117.3140 70° East 517 595 37,000  Level FlightAware
03:20PM 40.4960 -117.2240 70° East 517 595 37,000  Level FlightAware
03:21PM 40.5220 -117.1310 70° East 517 595 37,000  Level FlightAware
03:22PM 40.5480 -117.0380 70° East 517 595 37,000  Level FlightAware
03:22PM 40.5730 -116.9470 70° East 517 595 37,000  Level FlightAware
03:23PM 40.5960 -116.8620 70° East 517 595 37,000  Level FlightAware
03:23PM 40.6210 -116.7710 70° East 517 595 37,000  Level FlightAware
03:24PM 40.6480 -116.6760 69° East 517 595 37,000  Level FlightAware
03:25PM 40.7218 -116.3590 73° East 523 602 37,000  Level FlightAware ADS-B
03:25PM 40.6960 -116.4990 256° West 517 595 37,000  Level FlightAware
03:25PM 40.7621 -116.2090 73° East 523 602 37,000  Level FlightAware ADS-B
03:26PM 40.7868 -116.1150 71° East 523 602 37,000  Level FlightAware ADS-B
03:26PM 40.8109 -116.0240 71° East 524 603 37,000  Level FlightAware ADS-B
03:27PM 40.8354 -115.9310 71° East 524 603 37,000  Level FlightAware ADS-B
03:28PM 40.8644 -115.8210 71° East 524 603 37,000  Level FlightAware ADS-B
03:30PM 40.9888 -115.3420 71° East 523 602 37,000  Level FlightAware ADS-B
03:31PM 41.0161 -115.2360 71° East 522 601 37,000  Level FlightAware ADS-B
03:31PM 41.0393 -115.1450 71° East 523 602 37,000  Level FlightAware ADS-B
03:32PM 41.0626 -115.0530 71° East 523 602 37,000  Level FlightAware ADS-B
03:33PM 41.1013 -114.9000 71° East 523 602 37,000  Level FlightAware ADS-B
03:33PM 41.1334 -114.7730 71° East 523 602 37,000  Level FlightAware ADS-B
03:34PM 41.1566 -114.6800 72° East 521 600 37,000  Level FlightAware ADS-B
03:34PM 41.1825 -114.5760 72° East 523 602 37,000  Level FlightAware ADS-B
03:35PM 41.2081 -114.4740 72° East 523 602 37,000  Level FlightAware ADS-B
03:36PM 41.2311 -114.3800 72° East 524 603 37,000  Level FlightAware ADS-B
03:37PM 41.2753 -114.2010 72° East 523 602 37,000  Level FlightAware ADS-B
03:37PM 41.2995 -114.1020 72° East 520 598 37,000  Level FlightAware ADS-B
03:38PM 41.3219 -114.0100 72° East 522 601 37,000  Level FlightAware ADS-B
03:38PM 41.3441 -113.9190 72° East 521 600 37,000  Level FlightAware ADS-B
03:39PM 41.3616 -113.8350 74° East 522 601 37,000  Level FlightAware ADS-B
03:39PM 41.3773 -113.7320 78° East 524 603 37,000  Level FlightAware ADS-B
03:40PM 41.3898 -113.6360 80° East 523 602 37,000  Level FlightAware ADS-B
03:40PM 41.4029 -113.5320 80° East 521 600 37,000  Level FlightAware ADS-B
03:41PM 41.4152 -113.4350 80° East 523 602 37,000  Level FlightAware ADS-B
03:41PM 41.4274 -113.3370 81° East 524 603 37,000  Level FlightAware ADS-B
03:42PM 41.4395 -113.2400 81° East 526 605 37,000  Level FlightAware ADS-B
03:42PM 41.4536 -113.1260 81° East 525 604 37,000  Level FlightAware ADS-B
03:43PM 41.4663 -113.0230 81° East 524 603 37,000  Level FlightAware ADS-B
03:43PM 41.4806 -112.9070 81° East 523 602 37,000  Level FlightAware ADS-B
03:44PM 41.4930 -112.8080 80° East 521 600 37,000  Level FlightAware
03:44PM 41.4978 -112.7650 82° East 522 601 37,000  Level FlightAware ADS-B
03:45PM 41.5097 -112.6660 81° East 521 600 37,000  Level FlightAware ADS-B
03:45PM 41.5222 -112.5610 81° East 522 601 37,000  Level FlightAware ADS-B
03:46PM 41.5336 -112.4640 81° East 525 604 37,000  Level FlightAware ADS-B
03:46PM 41.5444 -112.3640 82° East 525 604 37,000  Level FlightAware ADS-B
03:47PM 41.5552 -112.2580 82° East 525 604 37,000  Level FlightAware ADS-B
03:47PM 41.5661 -112.1530 82° East 524 603 37,000  Level FlightAware ADS-B
03:48PM 41.5762 -112.0540 82° East 524 603 37,000  Level FlightAware ADS-B
03:48PM 41.5905 -111.9410 80° East 526 605 37,000  Level FlightAware ADS-B
03:49PM 41.6175 -111.7870 77° East 526 605 37,000  Level FlightAware ADS-B
03:50PM 41.6354 -111.6850 77° East 525 604 37,000  Level FlightAware ADS-B
03:50PM 41.6524 -111.5890 77° East 524 603 37,000  Level FlightAware ADS-B
03:51PM 41.6694 -111.4950 76° East 524 603 37,000  Level FlightAware ADS-B
03:51PM 41.6880 -111.3910 76° East 523 602 37,000  Level FlightAware ADS-B
03:52PM 41.7049 -111.2960 77° East 523 602 37,000  Level FlightAware ADS-B
03:52PM 41.7253 -111.1830 76° East 521 600 37,000  Level FlightAware ADS-B
03:53PM 41.7431 -111.0830 77° East 523 602 37,000  Level FlightAware ADS-B
03:53PM 41.7596 -110.9880 77° East 521 600 37,000  Level FlightAware ADS-B
03:54PM 41.7730 -110.9230 75° East 523 602 37,000  Level FlightAware
03:55PM 41.7910 -110.8270 76° East 523 602 37,000  Level FlightAware
03:55PM 41.8100 -110.7250 76° East 523 602 37,000  Level FlightAware
03:56PM 41.8280 -110.6290 76° East 523 602 37,000  Level FlightAware
03:56PM 41.8460 -110.5290 76° East 523 602 37,000  Level FlightAware
03:57PM 41.8640 -110.4300 76° East 523 602 37,000  Level FlightAware
03:58PM 41.8810 -110.3390 76° East 523 602 37,000  Level FlightAware
03:58PM 41.8980 -110.2480 76° East 523 602 37,000  Level FlightAware
03:59PM 41.9160 -110.1520 76° East 523 602 37,000  Level FlightAware
03:59PM 41.9350 -110.0520 76° East 523 602 37,000  Level FlightAware
04:00PM 41.9510 -109.9610 77° East 523 602 37,000  Level FlightAware
04:01PM 41.9700 -109.8620 75° East 523 602 37,000  Level FlightAware
04:01PM 41.9880 -109.7620 76° East 523 602 37,000  Level FlightAware
04:02PM 42.0060 -109.6660 76° East 523 602 37,000  Level FlightAware
04:03PM 42.0290 -109.5420 76° East 523 602 37,000  Level FlightAware
04:03PM 42.0267 -109.1750 76° East 523 602 37,000  Level Salt Lake Center
04:04PM 42.0439 -108.9864 83° East 526 605 37,000  Level Salt Lake Center
04:05PM 42.0622 -108.7700 83° East 521 600 37,000  Level Salt Lake Center
04:06PM 42.0778 -108.5828 84° East 524 603 37,000  Level Salt Lake Center
04:07PM 42.0956 -108.3656 84° East 523 602 37,000  Level Salt Lake Center
04:08PM 42.1111 -108.1803 83° East 521 600 37,000  Level Salt Lake Center
04:09PM 42.1253 -107.9594 85° East 529 609 37,000  Level Salt Lake Center
04:10PM 42.1400 -107.7750 84° East 522 601 37,000  Level Salt Lake Center
04:11PM 42.1539 -107.5900 84° East 522 601 37,000  Level Denver Center
04:17PM 42.2050 -106.3870 84° East 517 595 37,000  Level FlightAware
04:18PM 42.2040 -106.2810 91° East 517 595 37,000  Level FlightAware
04:19PM 42.2020 -106.1820 92° East 517 595 37,000  Level FlightAware
04:19PM 42.1960 -106.0110 93° East 516 594 37,000  Level FlightAware
04:20PM 42.1930 -105.8860 92° East 518 596 37,000  Level FlightAware
04:21PM 42.1920 -105.7740 91° East 518 596 37,000  Level FlightAware
04:21PM 42.1900 -105.6750 92° East 518 596 37,000  Level FlightAware
04:22PM 42.1890 -105.5760 91° East 518 596 37,000  Level FlightAware
04:23PM 42.1860 -105.3910 91° East 517 595 37,000  Level FlightAware
04:23PM 42.1900 -105.2880 87° East 515 593 37,000  Level FlightAware
04:24PM 42.1950 -105.1320 87° East 514 592 37,000  Level FlightAware
04:25PM 42.1990 -105.0310 87° East 514 592 37,000  Level FlightAware
04:25PM 42.2030 -104.9310 87° East 514 592 37,000  Level FlightAware
04:26PM 42.2070 -104.8330 87° East 514 592 37,000  Level FlightAware
04:26PM 42.2110 -104.7340 87° East 514 592 37,000  Level FlightAware
04:27PM 42.2340 -104.5440 81° East 516 594 37,000  Level FlightAware
04:28PM 42.2420 -104.4280 85° East 516 594 37,000  Level FlightAware
04:28PM 42.2480 -104.3330 85° East 516 594 37,000  Level FlightAware
04:29PM 42.2550 -104.2320 85° East 516 594 37,000  Level FlightAware
04:29PM 42.2610 -104.1310 85° East 516 594 37,000  Level FlightAware
04:30PM 42.2680 -104.0320 85° East 516 594 37,000  Level FlightAware
04:31PM 42.2740 -103.9310 85° East 516 594 37,000  Level FlightAware
04:31PM 42.2810 -103.8300 85° East 516 594 37,000  Level FlightAware
04:32PM 42.2870 -103.7290 85° East 516 594 37,000  Level FlightAware
04:33PM 42.3030 -103.4400 86° East 516 594 37,000  Level FlightAware
04:33PM 42.3090 -103.3390 85° East 516 594 37,000  Level FlightAware
04:34PM 42.3150 -103.2460 85° East 516 594 37,000  Level FlightAware
04:35PM 42.3250 -103.0410 86° East 516 594 37,000  Level FlightAware
04:35PM 42.3310 -102.9430 85° East 516 594 37,000  Level FlightAware
04:36PM 42.3380 -102.8420 85° East 516 594 37,000  Level FlightAware
04:37PM 42.3440 -102.7430 85° East 516 594 37,000  Level FlightAware
04:37PM 42.3510 -102.6420 85° East 516 594 37,000  Level FlightAware
04:38PM 42.3570 -102.5430 85° East 516 594 37,000  Level FlightAware
04:39PM 42.3640 -102.4420 85° East 516 594 37,000  Level FlightAware
04:39PM 42.3700 -102.3440 85° East 516 594 37,000  Level FlightAware
04:40PM 42.3770 -102.2400 85° East 516 594 37,000  Level FlightAware
04:40PM 42.3830 -102.1390 85° East 516 594 37,000  Level FlightAware
04:41PM 42.3900 -102.0370 85° East 516 594 37,000  Level FlightAware
04:42PM 42.3960 -101.9330 85° East 516 594 37,000  Level FlightAware
04:42PM 42.4030 -101.8350 84° East 516 594 37,000  Level FlightAware
04:43PM 42.4090 -101.7330 85° East 516 594 37,000  Level FlightAware
04:43PM 42.4160 -101.6350 84° East 516 594 37,000  Level FlightAware
04:44PM 42.4220 -101.5340 85° East 516 594 37,000  Level FlightAware
04:45PM 42.4083 -101.1661 85° East 511 588 37,000  Level Denver Center
04:46PM 42.4139 -100.9836 88° East 506 582 37,000  Level Denver Center
04:47PM 42.4203 -100.7689 88° East 510 587 37,000  Level Denver Center
04:48PM 42.4275 -100.5850 87° East 510 587 37,000  Level Denver Center
04:49PM 42.4331 -100.3706 88° East 511 588 37,000  Level Denver Center
04:50PM 42.4389 -100.1864 87° East 511 588 37,000  Level Denver Center
04:50PM 42.4406 -100.0969 89° East 512 589 37,000  Level Minneapolis Center
04:51PM 42.4447 -99.9803 87° East 513 590 37,000  Level Denver Center
04:52PM 42.4489 -99.7914 88° East 504 580 37,000  Level Denver Center
04:53PM 42.4531 -99.5958 88° East 513 590 37,000  Level Denver Center
04:53PM 42.4561 -99.4844 88° East 510 587 37,000  Level Minneapolis Center
04:54PM 42.4600 -99.2911 88° East 512 589 37,000  Level Minneapolis Center
04:55PM 42.4617 -99.2131 88° East 509 586 37,000  Level Denver Center
04:55PM 42.4647 -99.0997 88° East 509 586 37,000  Level Minneapolis Center
04:57PM 42.4678 -98.9075 89° East 510 587 37,000  Level Minneapolis Center
04:58PM 42.4708 -98.7153 89° East 510 587 37,000  Level Minneapolis Center
04:59PM 42.4783 -98.5233 87° East 509 586 37,000  Level Minneapolis Center
05:04PM 42.5270 -97.4510 87° East 507 583 37,000  Level FlightAware
05:05PM 42.5310 -97.3490 87° East 507 583 37,000  Level FlightAware
05:05PM 42.5370 -97.1990 87° East 507 583 37,000  Level FlightAware
05:06PM 42.5410 -97.0920 87° East 509 586 37,000  Level FlightAware
05:07PM 42.5460 -96.9480 87° East 511 588 37,000  Level FlightAware
05:07PM 42.5500 -96.8410 87° East 510 587 37,000  Level FlightAware
05:08PM 42.5540 -96.7170 87° East 507 583 37,000  Level FlightAware
05:09PM 42.5590 -96.5900 87° East 508 585 37,000 480 Level FlightAware
05:09PM 42.5620 -96.4870 88° East 505 581 37,600 1,080 Climbing FlightAware
05:10PM 42.5650 -96.3820 88° East 502 578 38,200 960 Climbing FlightAware
05:10PM 42.5690 -96.2750 87° East 501 577 38,700 420 Climbing FlightAware
05:11PM 42.5720 -96.1760 88° East 501 577 38,700 240 Level FlightAware
05:11PM 42.5750 -96.0770 88° East 503 579 39,000 240 Climbing FlightAware
05:12PM 42.5780 -95.9480 88° East 503 579 39,000  Level FlightAware
05:13PM 42.5810 -95.8370 88° East 504 580 39,000  Level FlightAware
05:13PM 42.5840 -95.7310 88° East 505 581 39,000  Level FlightAware
05:14PM 42.5870 -95.6160 88° East 506 582 39,000  Level FlightAware
05:14PM 42.5890 -95.4970 89° East 506 582 39,000  Level FlightAware
05:15PM 42.5920 -95.4010 88° East 505 581 39,000  Level FlightAware
05:15PM 42.5940 -95.2820 89° East 505 581 39,000  Level FlightAware
05:16PM 42.5960 -95.1740 89° East 506 582 39,000  Level FlightAware
05:17PM 42.5990 -95.0550 88° East 506 582 39,000  Level FlightAware
05:17PM 42.6010 -94.9510 88° East 507 583 39,000  Level FlightAware
05:18PM 42.6030 -94.8470 88° East 506 582 39,000  Level FlightAware
05:18PM 42.6050 -94.7230 89° East 504 580 39,000  Level FlightAware
05:19PM 42.6060 -94.6190 89° East 503 579 39,000  Level FlightAware
05:20PM 42.6080 -94.5100 89° East 504 580 39,000  Level FlightAware
05:20PM 42.6100 -94.3980 89° East 506 582 39,000  Level FlightAware
05:21PM 42.6110 -94.2860 89° East 508 585 39,000  Level FlightAware
05:21PM 42.6120 -94.1890 89° East 507 583 39,000  Level FlightAware
05:22PM 42.6130 -94.0660 89° East 507 583 39,000  Level FlightAware
05:22PM 42.6140 -93.9510 89° East 507 583 39,000  Level FlightAware
05:23PM 42.6150 -93.8410 89° East 508 585 39,000  Level FlightAware
05:24PM 42.6150 -93.7330 90° East 509 586 39,000  Level FlightAware
05:24PM 42.6160 -93.6210 89° East 506 582 39,000  Level FlightAware
05:25PM 42.6260 -93.5170 83° East 500 575 39,000  Level FlightAware
05:25PM 42.6380 -93.4020 82° East 500 575 39,000  Level FlightAware
05:26PM 42.6480 -93.3010 82° East 500 575 39,000  Level FlightAware
05:27PM 42.6600 -93.1900 82° East 500 575 39,000  Level FlightAware
05:27PM 42.6720 -93.0780 82° East 501 577 39,000  Level FlightAware
05:28PM 42.6840 -92.9720 81° East 501 577 39,000  Level FlightAware
05:28PM 42.6950 -92.8680 82° East 501 577 39,000  Level FlightAware
05:29PM 42.7080 -92.7540 81° East 501 577 39,000  Level FlightAware
05:29PM 42.7200 -92.6440 82° East 500 575 39,000  Level FlightAware
05:30PM 42.7330 -92.5310 81° East 499 574 39,000  Level FlightAware
05:31PM 42.7450 -92.4210 82° East 498 573 39,000  Level FlightAware
05:31PM 42.7570 -92.3150 81° East 499 574 39,000  Level FlightAware
05:32PM 42.7680 -92.2170 81° East 499 574 39,000  Level FlightAware
05:32PM 42.7790 -92.1230 81° East 500 575 39,000  Level FlightAware
05:33PM 42.7940 -92.0060 80° East 500 575 39,000  Level FlightAware
05:33PM 42.8060 -91.9070 81° East 501 577 39,000  Level FlightAware
05:34PM 42.8200 -91.7950 80° East 501 577 39,000  Level FlightAware
05:35PM 42.8340 -91.6840 80° East 501 577 39,000  Level FlightAware
05:35PM 42.8480 -91.5760 80° East 501 577 39,000  Level FlightAware
05:36PM 42.8650 -91.4520 79° East 501 577 39,000  Level FlightAware
05:36PM 42.8770 -91.3620 80° East 501 577 39,000  Level FlightAware
05:37PM 42.8920 -91.2500 80° East 501 577 39,000  Level FlightAware
05:38PM 42.9090 -91.1310 79° East 501 577 39,000  Level FlightAware
05:38PM 42.9220 -91.0330 80° East 502 578 39,000  Level FlightAware
05:39PM 42.9370 -90.9280 79° East 506 582 39,000  Level FlightAware
05:39PM 42.9530 -90.8200 79° East 507 583 39,000  Level FlightAware
05:40PM 42.9710 -90.6930 79° East 507 583 39,000  Level FlightAware
05:40PM 42.9850 -90.5960 79° East 505 581 39,000  Level FlightAware
05:41PM 43.0000 -90.4800 80° East 504 580 39,000  Level FlightAware
05:42PM 43.0160 -90.3670 79° East 503 579 39,000  Level FlightAware
05:42PM 43.0310 -90.2530 80° East 502 578 39,000  Level FlightAware
05:43PM 43.0460 -90.1530 78° East 503 579 39,000  Level FlightAware
05:43PM 43.0600 -90.0560 79° East 504 580 39,000  Level FlightAware
05:44PM 43.0790 -89.9340 78° East 504 580 39,000  Level FlightAware
05:45PM 43.0970 -89.8180 78° East 503 579 39,000  Level FlightAware
05:45PM 43.1130 -89.7180 78° East 502 578 39,000  Level FlightAware
05:46PM 43.1300 -89.6140 77° East 504 580 39,000  Level FlightAware
05:46PM 43.1480 -89.5080 77° East 504 580 39,000  Level FlightAware
05:47PM 43.1710 -89.3810 76° East 504 580 39,000  Level FlightAware
05:48PM 43.1910 -89.2700 76° East 504 580 39,000  Level FlightAware
05:48PM 43.2110 -89.1640 75° East 505 581 39,000  Level FlightAware
05:49PM 43.2290 -89.0680 76° East 506 582 39,000  Level FlightAware
05:49PM 43.2520 -88.9550 74° East 506 582 39,000  Level FlightAware
05:50PM 43.2790 -88.8330 73° East 497 572 39,000  Level FlightAware
05:51PM 43.3020 -88.7300 73° East 488 562 39,000  Level FlightAware
05:51PM 43.3310 -88.6240 69° East 490 564 39,000  Level FlightAware
05:52PM 43.3640 -88.5250 65° Northeast 497 572 39,000  Level FlightAware
05:52PM 43.3960 -88.4270 66° East 504 580 39,000  Level FlightAware
05:53PM 43.4290 -88.3240 66° East 507 583 39,000  Level FlightAware
05:53PM 43.4630 -88.2150 67° East 508 585 39,000  Level FlightAware
05:54PM 43.4950 -88.1130 67° East 505 581 39,000  Level FlightAware
05:55PM 43.5250 -88.0140 67° East 507 583 39,000  Level FlightAware
05:55PM 43.5430 -87.9050 77° East 509 586 39,000  Level FlightAware
05:56PM 43.5490 -87.7990 85° East 515 593 39,000 -600 Level FlightAware
05:56PM 43.5550 -87.6850 86° East 516 594 38,400 -1,080 Descending FlightAware
05:57PM 43.5630 -87.5550 85° East 516 594 37,700 -1,140 Descending FlightAware
05:57PM 43.5680 -87.4510 86° East 517 595 37,100 -1,260 Descending FlightAware
05:58PM 43.5720 -87.3340 87° East 522 601 36,300 -1,380 Descending FlightAware
05:59PM 43.5760 -87.2070 87° East 528 608 35,400 -1,140 Descending FlightAware
05:59PM 43.5720 -87.0920 93° East 529 609 35,000 -360 Descending FlightAware
06:00PM 43.5640 -86.9790 96° East 528 608 35,000  Level FlightAware
06:00PM 43.5560 -86.8600 95° East 529 609 35,000  Level FlightAware
06:01PM 43.5490 -86.7370 94° East 529 609 35,000  Level FlightAware
06:02PM 43.5410 -86.6160 95° East 532 612 35,000  Level FlightAware
06:02PM 43.5350 -86.5060 94° East 531 611 35,000  Level FlightAware
06:03PM 43.5280 -86.3870 95° East 527 606 35,000  Level FlightAware
06:03PM 43.5210 -86.2690 95° East 528 608 35,000  Level FlightAware
06:04PM 43.5140 -86.1520 95° East 530 610 35,000  Level FlightAware
06:05PM 43.5080 -86.0330 94° East 530 610 35,000  Level FlightAware
06:05PM 43.5020 -85.9180 94° East 531 611 35,000  Level FlightAware
06:06PM 43.4950 -85.7950 94° East 535 616 35,000  Level FlightAware
06:06PM 43.4830 -85.6750 98° East 537 618 35,000  Level FlightAware
06:07PM 43.4700 -85.5550 98° East 535 616 35,000  Level FlightAware
06:08PM 43.4570 -85.4190 97° East 532 612 35,000  Level FlightAware
06:08PM 43.4450 -85.3050 98° East 533 613 35,000  Level FlightAware
06:09PM 43.4330 -85.1860 98° East 537 618 35,000  Level FlightAware
06:09PM 43.4210 -85.0640 98° East 536 617 35,000  Level FlightAware
06:10PM 43.4090 -84.9470 98° East 529 609 35,000  Level FlightAware
06:10PM 43.3970 -84.8390 99° East 526 605 35,000  Level FlightAware
06:11PM 43.3830 -84.7130 99° East 524 603 35,000  Level FlightAware
06:12PM 43.3710 -84.6070 99° East 522 601 35,000  Level FlightAware
06:12PM 43.3560 -84.4820 99° East 519 597 35,000 60 Level FlightAware
06:13PM 43.3440 -84.3730 99° East 517 595 35,100 840 Climbing FlightAware
06:13PM 43.3300 -84.2640 100° East 509 586 36,000 1,920 Climbing FlightAware
06:14PM 43.3150 -84.1570 101° East 495 570 37,300 1,320 Climbing FlightAware
06:15PM 43.2950 -84.0400 103° East 507 583 37,600 600 Climbing FlightAware
06:15PM 43.2740 -83.9410 106° East 513 590 38,000 600 Climbing FlightAware
06:16PM 43.2510 -83.8310 106° East 520 598 38,300 480 Climbing FlightAware
06:16PM 43.2280 -83.7160 105° East 529 609 38,600 420 Climbing FlightAware
06:17PM 43.2070 -83.6130 106° East 530 610 38,800 300 Climbing FlightAware
06:17PM 43.1840 -83.4970 105° East 527 606 39,000 120 Climbing FlightAware
06:18PM 43.1570 -83.3630 105° East 516 594 39,000  Level FlightAware
06:19PM 43.1350 -83.2560 106° East 507 583 39,000  Level FlightAware
06:19PM 43.1150 -83.1560 105° East 504 580 39,000  Level FlightAware
06:20PM 43.0890 -83.0320 106° East 511 588 39,000  Level FlightAware
06:20PM 43.0680 -82.9280 105° East 515 593 39,000  Level FlightAware
06:21PM 43.0480 -82.8320 106° East 520 598 39,000  Level FlightAware
06:22PM 43.0220 -82.7100 106° East 521 600 39,000  Level FlightAware
06:22PM 42.9980 -82.5950 106° East 520 598 39,000  Level FlightAware
06:23PM 42.9740 -82.4840 106° East 517 595 39,000  Level FlightAware
06:23PM 42.9490 -82.3690 107° East 516 594 39,000  Level FlightAware
06:24PM 42.9290 -82.2750 106° East 520 598 39,000  Level FlightAware
06:25PM 42.9030 -82.1580 107° East 522 601 39,000  Level FlightAware
06:25PM 42.8760 -82.0350 107° East 521 600 39,000  Level FlightAware
06:26PM 42.8520 -81.9250 107° East 519 597 39,000  Level FlightAware
06:26PM 42.8270 -81.8160 107° East 518 596 39,000  Level FlightAware
06:27PM 42.8030 -81.7070 107° East 517 595 39,000  Level FlightAware
06:28PM 42.7780 -81.5960 107° East 518 596 39,000  Level FlightAware
06:28PM 42.7540 -81.4900 107° East 519 597 39,000  Level FlightAware
06:29PM 42.7270 -81.3680 107° East 516 594 39,000  Level FlightAware
06:29PM 42.7010 -81.2570 108° East 516 594 39,000  Level FlightAware
06:30PM 42.6800 -81.1650 107° East 516 594 39,000  Level FlightAware
06:31PM 42.6550 -81.0560 107° East 518 596 39,000  Level FlightAware
06:31PM 42.6260 -80.9300 107° East 519 597 39,000  Level FlightAware
06:32PM 42.6000 -80.8200 108° East 518 596 39,000  Level FlightAware
06:32PM 42.5760 -80.7180 108° East 518 596 39,000  Level FlightAware
06:33PM 42.5530 -80.6190 107° East 520 598 39,000  Level FlightAware
06:33PM 42.5300 -80.5210 108° East 519 597 39,000  Level FlightAware
06:34PM 42.5020 -80.4050 108° East 516 594 39,000  Level FlightAware
06:35PM 42.4730 -80.2810 108° East 514 592 39,000  Level FlightAware
06:35PM 42.4510 -80.1890 108° East 515 593 39,000  Level FlightAware
06:36PM 42.4220 -80.0670 108° East 517 595 39,000  Level FlightAware
06:36PM 42.3950 -79.9590 109° East 518 596 39,000  Level FlightAware
06:37PM 42.3740 -79.8690 108° East 518 596 39,000  Level FlightAware
06:38PM 42.3470 -79.7590 108° East 518 596 39,000  Level FlightAware
06:38PM 42.3170 -79.6380 108° East 517 595 39,000  Level FlightAware
06:39PM 42.2950 -79.5480 108° East 516 594 39,000  Level FlightAware
06:39PM 42.2700 -79.4480 109° East 514 592 39,000  Level FlightAware
06:40PM 42.2430 -79.3370 108° East 514 592 39,000  Level FlightAware
06:41PM 42.2110 -79.2110 109° East 513 590 39,000  Level FlightAware
06:41PM 42.1890 -79.1200 108° East 513 590 39,000  Level FlightAware
06:42PM 42.1640 -79.0160 108° East 513 590 39,000  Level FlightAware
06:42PM 42.1330 -78.8960 109° East 514 592 39,000  Level FlightAware
06:43PM 42.1050 -78.7900 110° East 515 593 39,000  Level FlightAware
06:43PM 42.0780 -78.6820 109° East 517 595 39,000  Level FlightAware
06:44PM 42.0550 -78.5910 109° East 518 596 39,000  Level FlightAware
06:45PM 42.0280 -78.4860 109° East 517 595 39,000  Level FlightAware
06:45PM 41.9970 -78.3640 109° East 515 593 39,000  Level FlightAware
06:46PM 41.9710 -78.2600 109° East 514 592 39,000  Level FlightAware
06:46PM 41.9430 -78.1510 109° East 512 589 39,000  Level FlightAware
06:47PM 41.9160 -78.0470 109° East 511 588 39,000  Level FlightAware
06:47PM 41.8910 -77.9520 109° East 510 587 39,000  Level FlightAware
06:48PM 41.8620 -77.8390 109° East 509 586 39,000  Level FlightAware
06:49PM 41.8330 -77.7320 110° East 505 581 39,000  Level FlightAware
06:49PM 41.8050 -77.6260 109° East 502 578 39,000  Level FlightAware
06:50PM 41.7800 -77.5320 110° East 499 574 39,000  Level FlightAware
06:50PM 41.7530 -77.4300 110° East 500 575 39,000  Level FlightAware
06:51PM 41.7260 -77.3270 109° East 501 577 39,000  Level FlightAware
06:52PM 41.6970 -77.2210 110° East 501 577 39,000  Level FlightAware
06:52PM 41.6720 -77.1270 110° East 500 575 39,000  Level FlightAware
06:53PM 41.6370 -76.9990 110° East 498 573 39,000  Level FlightAware
06:53PM 41.6110 -76.9010 110° East 499 574 39,000  Level FlightAware
06:54PM 41.5750 -76.7670 110° East 501 577 39,000  Level FlightAware
06:55PM 41.5530 -76.6800 109° East 501 577 39,000  Level FlightAware
06:56PM 41.5270 -76.5800 109° East 501 577 39,000 -360 Level FlightAware
06:56PM 41.4880 -76.4540 112° Southeast 494 568 38,600 -1,380 Descending FlightAware
06:57PM 41.4580 -76.3450 110° East 503 579 37,500 -1,620 Descending FlightAware
06:57PM 41.4250 -76.2290 111° Southeast 498 573 36,700 -1,920 Descending FlightAware
06:58PM 41.4010 -76.1420 110° East 500 575 35,300 -2,880 Descending FlightAware
06:58PM 41.3700 -76.0320 111° Southeast 505 581 33,500 -2,940 Descending FlightAware
06:59PM 41.3420 -75.9330 111° Southeast 504 580 31,800 -2,940 Descending FlightAware
07:00PM 41.3140 -75.8340 111° Southeast 504 580 30,200 -2,700 Descending FlightAware
07:00PM 41.2850 -75.7320 111° Southeast 498 573 28,700 -2,400 Descending FlightAware
07:01PM 41.2530 -75.6290 112° Southeast 489 563 27,300 -2,340 Descending FlightAware
07:01PM 41.2220 -75.5370 114° Southeast 482 555 26,000 -2,400 Descending FlightAware
07:02PM 41.1940 -75.4520 114° Southeast 472 543 24,800 -2,340 Descending FlightAware
07:03PM 41.1590 -75.3490 114° Southeast 462 532 23,300 -1,440 Descending FlightAware
07:03PM 41.1270 -75.2540 114° Southeast 457 526 23,000 -360 Descending FlightAware
07:04PM 41.0990 -75.1720 114° Southeast 453 521 22,900 -780 Descending FlightAware
07:04PM 41.0610 -75.0610 114° Southeast 452 520 22,000 -900 Descending FlightAware
07:05PM 41.0330 -74.9780 114° Southeast 455 524 21,800 -480 Descending FlightAware
07:06PM 41.0070 -74.8980 113° Southeast 453 521 21,500 -540 Descending FlightAware
07:06PM 40.9880 -74.8000 104° East 451 519 21,200 -600 Descending FlightAware
07:07PM 40.9760 -74.6900 98° East 447 514 20,800 -600 Descending FlightAware
07:07PM 40.9670 -74.6000 98° East 448 516 20,500 -600 Descending FlightAware
07:08PM 40.9570 -74.5130 99° East 446 513 20,200 -540 Descending FlightAware
07:08PM 40.9470 -74.4230 98° East 442 509 19,900 -540 Descending FlightAware
07:09PM 40.9379 -74.3384 98° East 19,700 -540 Descending FlightAware ADS-B
07:10PM 40.9260 -74.2340 99° East 417 480 19,300 -600 Descending FlightAware
07:10PM 40.9232 -74.2081 98° East 407 468 19,200 -420 Descending FlightAware ADS-B
07:10PM 40.9067 -74.1244 105° East 376 433 19,000 -300 Descending FlightAware ADS-B
07:11PM 40.8951 -74.1019 124° Southeast 376 433 19,000  Level FlightAware ADS-B
07:11PM 40.8830 -74.0854 134° Southeast 378 435 19,000  Level FlightAware ADS-B
07:11PM 40.8665 -74.0696 144° Southeast 377 434 19,000  Level FlightAware ADS-B
07:11PM 40.8609 -74.0654 150° Southeast 377 434 19,000  Level FlightAware ADS-B
07:12PM 40.8002 -74.0259 154° Southeast 377 434 19,000 -480 Level FlightAware ADS-B
07:12PM 40.7530 -73.9960 154° Southeast 367 422 18,500 -960 Descending FlightAware
07:13PM 40.6970 -73.9610 155° Southeast 349 402 17,900 -1,620 Descending FlightAware
07:13PM 40.6440 -73.9270 154° Southeast 339 390 16,600 -2,340 Descending FlightAware
07:14PM 40.5990 -73.8980 154° Southeast 333 383 15,300 -2,580 Descending FlightAware
07:15PM 40.5490 -73.8670 155° Southeast 335 386 13,700 -2,100 Descending FlightAware
07:15PM 40.5000 -73.8450 161° South 324 373 12,900 -1,680 Descending FlightAware
07:16PM 40.4470 -73.8380 174° South 316 364 11,800 -1,680 Descending FlightAware
07:16PM 40.3990 -73.8330 175° South 306 352 11,000 -1,500 Descending FlightAware
07:17PM 40.3690 -73.8160 157° South 301 346 10,400 -1,680 Descending FlightAware
07:17PM 40.3580 -73.7980 129° Southeast 300 345 10,000 -1,860 Descending FlightAware
07:17PM 40.3460 -73.7680 118° Southeast 300 345 9,400 -1,860 Descending FlightAware
07:18PM 40.3320 -73.7320 117° Southeast 299 344 8,700 -1,920 Descending FlightAware
07:18PM 40.3240 -73.7080 114° Southeast 298 343 8,300 -1,680 Descending FlightAware
07:18PM 40.3230 -73.7010 101° East 299 344 8,200 -1,680 Descending FlightAware
07:18PM 40.3220 -73.6890 96° East 300 345 8,000 -1,380 Descending FlightAware
07:18PM 40.3300 -73.6560 72° East 295 339 7,600 -1,200 Descending FlightAware
07:19PM 40.3390 -73.6420 50° Northeast 291 335 7,400 -1,320 Descending FlightAware
07:19PM 40.3490 -73.6340 31° Northeast 289 333 7,200 -1,200 Descending FlightAware
07:19PM 40.3630 -73.6240 29° Northeast 286 329 7,000 -360 Descending FlightAware
07:19PM 40.3880 -73.6060 29° Northeast 290 334 7,000  Level FlightAware
07:20PM 40.4090 -73.5920 27° Northeast 290 334 7,000  Level FlightAware
07:20PM 40.4370 -73.5730 27° Northeast 289 333 7,000  Level FlightAware
07:20PM 40.4620 -73.5550 29° Northeast 269 310 7,000  Level FlightAware
07:21PM 40.4870 -73.5380 27° Northeast 248 285 7,000 -180 Level FlightAware
07:21PM 40.5040 -73.5260 28° Northeast 242 278 6,900 -840 Descending FlightAware
07:21PM 40.5250 -73.5110 28° Northeast 240 276 6,500 -1,140 Descending FlightAware
07:22PM 40.5490 -73.4940 28° Northeast 238 274 6,100 -900 Descending FlightAware
07:22PM 40.5660 -73.4820 28° Northeast 236 272 5,900 -840 Descending FlightAware
07:22PM 40.5900 -73.4650 28° Northeast 233 268 5,500 -960 Descending FlightAware
07:23PM 40.6070 -73.4520 30° Northeast 232 267 5,200 -780 Descending FlightAware
07:23PM 40.6280 -73.4360 30° Northeast 231 266 5,000 -300 Descending FlightAware
07:23PM 40.6440 -73.4240 30° Northeast 232 267 5,000  Level FlightAware
07:24PM 40.6580 -73.4140 28° Northeast 231 266 5,000  Level FlightAware
07:24PM 40.6800 -73.3960 32° Northeast 232 267 5,000  Level FlightAware
07:24PM 40.6950 -73.3850 29° Northeast 233 268 5,000  Level FlightAware
07:25PM 40.7200 -73.3660 30° Northeast 231 266 5,000  Level FlightAware
07:25PM 40.7320 -73.3580 27° Northeast 232 267 5,000 -360 Level FlightAware
07:25PM 40.7530 -73.3490 18° North 226 260 4,800 -780 Descending FlightAware
07:26PM 40.7720 -73.3600 336° Northwest 214 246 4,500 -900 Descending FlightAware
07:26PM 40.7860 -73.3770 317° Northwest 213 245 4,200 -780 Descending FlightAware
07:26PM 40.8010 -73.3980 313° West 214 246 4,000 -300 Descending FlightAware
07:27PM 40.8080 -73.4190 294° West 216 249 4,000  Level FlightAware
07:27PM 40.8150 -73.4510 286° West 217 250 4,000  Level FlightAware
07:27PM 40.8200 -73.4770 284° West 217 250 4,000  Level FlightAware
07:27PM 40.8200 -73.4860 270° West 217 250 4,000 -420 Level FlightAware
07:28PM 40.8160 -73.5150 260° West 214 246 3,800 -840 Descending FlightAware
07:28PM 40.8100 -73.5420 254° West 214 246 3,400 -1,200 Descending FlightAware
07:29PM 40.8050 -73.5670 255° West 212 244 3,000 -660 Descending FlightAware
07:29PM 40.8010 -73.5890 257° West 213 245 3,000  Level FlightAware
07:29PM 40.7960 -73.6170 257° West 213 245 3,000  Level FlightAware
07:30PM 40.7900 -73.6470 255° West 214 246 3,000  Level FlightAware
07:30PM 40.7860 -73.6570 242° Southwest 216 249 3,000  Level FlightAware
07:30PM 40.7840 -73.6610 237° Southwest 217 250 3,000  Level FlightAware
07:30PM 40.7780 -73.6680 221° Southwest 217 250 3,000 -300 Level FlightAware
07:30PM 40.7680 -73.6790 220° Southwest 220 253 2,900 -1,020 Descending FlightAware
07:31PM 40.7470 -73.6960 212° Southwest 219 252 2,400 -1,260 Descending FlightAware
07:31PM 40.7300 -73.7080 208° Southwest 202 232 2,000 -1,200 Descending FlightAware
07:31PM 40.7170 -73.7160 205° Southwest 191 220 1,700 -1,020 Descending FlightAware
07:32PM 40.7030 -73.7270 211° Southwest 170 196 1,400 -900 Descending FlightAware
07:32PM 40.6900 -73.7360 208° Southwest 146 168 1,100 -780 Descending FlightAware
07:32PM 40.6780 -73.7440 207° Southwest 128 147 900 -600 Descending FlightAware
07:33PM 40.6670 -73.7510 206° Southwest 127 146 700 -780 Descending FlightAware
07:33PM 40.6580 -73.7580 211° Southwest 127 146 400 -780 Descending FlightAware
07:33PM 40.6480 -73.7660 211° Southwest 126 145 200 -540 Descending FlightAware
07:33PM 40.6400 -73.7720 210° Southwest 124 143 100 -480 Descending FlightAware
07:34PM 40.6330 -73.7770 208° Southwest 84 97 -420 Descending FlightAware